sensor_id;sensor_type;location;lat;lon;timestamp;temperature;humidity
2042;DHT22;1026;51.460;7.252;2022-09-09T00:01:25;19.00;77.60
2042;DHT22;1026;51.460;7.252;2022-09-09T00:06:50;19.00;77.70
2042;DHT22;1026;51.460;7.252;2022-09-09T00:09:23;19.00;77.70
2042;DHT22;1026;51.460;7.252;2022-09-09T00:11:54;19.00;77.70
2042;DHT22;1026;51.460;7.252;2022-09-09T00:14:25;19.00;77.60
2042;DHT22;1026;51.460;7.252;2022-09-09T00:16:57;19.00;77.70
2042;DHT22;1026;51.460;7.252;2022-09-09T00:22:23;19.00;77.80
2042;DHT22;1026;51.460;7.252;2022-09-09T00:24:53;18.90;77.60
2042;DHT22;1026;51.460;7.252;2022-09-09T00:27:33;18.80;77.60
2042;DHT22;1026;51.460;7.252;2022-09-09T00:30:21;18.90;77.70
2042;DHT22;1026;51.460;7.252;2022-09-09T00:33:00;18.90;77.80
2042;DHT22;1026;51.460;7.252;2022-09-09T00:35:36;18.90;77.80
2042;DHT22;1026;51.460;7.252;2022-09-09T00:38:30;18.90;77.80
2042;DHT22;1026;51.460;7.252;2022-09-09T00:43:28;18.90;77.90
2042;DHT22;1026;51.460;7.252;2022-09-09T00:49:15;18.90;77.90
2042;DHT22;1026;51.460;7.252;2022-09-09T00:57:32;18.80;77.90
2042;DHT22;1026;51.460;7.252;2022-09-09T01:00:22;18.80;77.90
2042;DHT22;1026;51.460;7.252;2022-09-09T01:06:00;18.80;77.90
2042;DHT22;1026;51.460;7.252;2022-09-09T01:11:14;18.80;78.00
2042;DHT22;1026;51.460;7.252;2022-09-09T01:13:42;18.70;77.90
2042;DHT22;1026;51.460;7.252;2022-09-09T01:16:12;18.70;77.90
2042;DHT22;1026;51.460;7.252;2022-09-09T01:18:43;18.70;77.90
2042;DHT22;1026;51.460;7.252;2022-09-09T01:21:13;18.70;78.00
2042;DHT22;1026;51.460;7.252;2022-09-09T01:26:26;18.70;78.00
2042;DHT22;1026;51.460;7.252;2022-09-09T01:28:52;18.70;78.00
2042;DHT22;1026;51.460;7.252;2022-09-09T01:34:12;18.70;78.00
2042;DHT22;1026;51.460;7.252;2022-09-09T01:36:43;18.70;78.00
2042;DHT22;1026;51.460;7.252;2022-09-09T01:39:10;18.70;78.00
2042;DHT22;1026;51.460;7.252;2022-09-09T01:41:37;18.70;78.00
2042;DHT22;1026;51.460;7.252;2022-09-09T01:44:03;18.60;78.00
2042;DHT22;1026;51.460;7.252;2022-09-09T01:46:29;18.60;78.00
2042;DHT22;1026;51.460;7.252;2022-09-09T01:48:55;18.60;77.90
2042;DHT22;1026;51.460;7.252;2022-09-09T01:51:21;18.60;78.00
2042;DHT22;1026;51.460;7.252;2022-09-09T01:53:48;18.60;78.00
2042;DHT22;1026;51.460;7.252;2022-09-09T02:01:56;18.60;78.20
2042;DHT22;1026;51.460;7.252;2022-09-09T02:04:27;18.60;78.20
2042;DHT22;1026;51.460;7.252;2022-09-09T02:06:57;18.60;78.20
2042;DHT22;1026;51.460;7.252;2022-09-09T02:09:24;18.50;78.00
2042;DHT22;1026;51.460;7.252;2022-09-09T02:11:57;18.50;78.00
2042;DHT22;1026;51.460;7.252;2022-09-09T02:14:31;18.50;78.10
2042;DHT22;1026;51.460;7.252;2022-09-09T02:17:06;18.50;78.20
2042;DHT22;1026;51.460;7.252;2022-09-09T02:19:44;18.50;78.10
2042;DHT22;1026;51.460;7.252;2022-09-09T02:22:12;18.50;78.10
2042;DHT22;1026;51.460;7.252;2022-09-09T02:24:39;18.50;78.20
2042;DHT22;1026;51.460;7.252;2022-09-09T02:27:07;18.50;78.20
2042;DHT22;1026;51.460;7.252;2022-09-09T02:29:37;18.50;78.20
2042;DHT22;1026;51.460;7.252;2022-09-09T02:32:08;18.50;78.20
2042;DHT22;1026;51.460;7.252;2022-09-09T02:34:38;18.50;78.30
2042;DHT22;1026;51.460;7.252;2022-09-09T02:37:07;18.40;78.20
2042;DHT22;1026;51.460;7.252;2022-09-09T02:39:33;18.40;78.10
2042;DHT22;1026;51.460;7.252;2022-09-09T02:41:59;18.40;78.20
2042;DHT22;1026;51.460;7.252;2022-09-09T02:44:25;18.40;78.20
2042;DHT22;1026;51.460;7.252;2022-09-09T02:52:35;18.40;78.20
2042;DHT22;1026;51.460;7.252;2022-09-09T02:57:49;18.40;78.20
2042;DHT22;1026;51.460;7.252;2022-09-09T03:00:15;18.40;78.40
2042;DHT22;1026;51.460;7.252;2022-09-09T03:02:41;18.40;78.30
2042;DHT22;1026;51.460;7.252;2022-09-09T03:05:07;18.40;78.40
2042;DHT22;1026;51.460;7.252;2022-09-09T03:07:33;18.40;78.30
2042;DHT22;1026;51.460;7.252;2022-09-09T03:09:59;18.30;78.20
2042;DHT22;1026;51.460;7.252;2022-09-09T03:12:24;18.30;78.30
2042;DHT22;1026;51.460;7.252;2022-09-09T03:14:50;18.30;78.30
2042;DHT22;1026;51.460;7.252;2022-09-09T03:17:16;18.30;78.30
2042;DHT22;1026;51.460;7.252;2022-09-09T03:19:42;18.30;78.30
2042;DHT22;1026;51.460;7.252;2022-09-09T03:22:10;18.30;78.40
2042;DHT22;1026;51.460;7.252;2022-09-09T03:24:36;18.30;78.50
2042;DHT22;1026;51.460;7.252;2022-09-09T03:27:02;18.30;78.40
2042;DHT22;1026;51.460;7.252;2022-09-09T03:29:27;18.30;78.40
2042;DHT22;1026;51.460;7.252;2022-09-09T03:31:53;18.30;78.40
2042;DHT22;1026;51.460;7.252;2022-09-09T03:34:19;18.30;78.40
2042;DHT22;1026;51.460;7.252;2022-09-09T03:36:44;18.30;78.40
2042;DHT22;1026;51.460;7.252;2022-09-09T03:39:10;18.30;78.40
2042;DHT22;1026;51.460;7.252;2022-09-09T03:41:35;18.30;78.50
2042;DHT22;1026;51.460;7.252;2022-09-09T03:44:02;18.30;78.40
2042;DHT22;1026;51.460;7.252;2022-09-09T03:46:28;18.20;78.40
2042;DHT22;1026;51.460;7.252;2022-09-09T03:48:53;18.20;78.40
2042;DHT22;1026;51.460;7.252;2022-09-09T03:51:20;18.20;78.40
2042;DHT22;1026;51.460;7.252;2022-09-09T03:53:47;18.20;78.50
2042;DHT22;1026;51.460;7.252;2022-09-09T03:56:13;18.20;78.40
2042;DHT22;1026;51.460;7.252;2022-09-09T03:58:38;18.20;78.50
2042;DHT22;1026;51.460;7.252;2022-09-09T04:01:09;18.20;78.50
2042;DHT22;1026;51.460;7.252;2022-09-09T04:03:35;18.20;78.50
2042;DHT22;1026;51.460;7.252;2022-09-09T04:06:03;18.20;78.50
2042;DHT22;1026;51.460;7.252;2022-09-09T04:08:29;18.10;78.40
2042;DHT22;1026;51.460;7.252;2022-09-09T04:10:56;18.20;78.50
2042;DHT22;1026;51.460;7.252;2022-09-09T04:13:24;18.20;78.60
2042;DHT22;1026;51.460;7.252;2022-09-09T04:15:52;18.20;78.60
2042;DHT22;1026;51.460;7.252;2022-09-09T04:18:18;18.10;78.50
2042;DHT22;1026;51.460;7.252;2022-09-09T04:20:47;18.10;78.50
2042;DHT22;1026;51.460;7.252;2022-09-09T04:23:13;18.10;78.60
2042;DHT22;1026;51.460;7.252;2022-09-09T04:25:45;18.10;79.30
2042;DHT22;1026;51.460;7.252;2022-09-09T04:28:13;18.10;78.50
2042;DHT22;1026;51.460;7.252;2022-09-09T04:30:38;18.10;78.60
2042;DHT22;1026;51.460;7.252;2022-09-09T04:33:05;18.10;78.60
2042;DHT22;1026;51.460;7.252;2022-09-09T04:35:32;18.10;78.60
2042;DHT22;1026;51.460;7.252;2022-09-09T04:37:58;18.10;78.60
2042;DHT22;1026;51.460;7.252;2022-09-09T04:40:24;18.10;78.70
2042;DHT22;1026;51.460;7.252;2022-09-09T04:42:50;18.10;78.70
2042;DHT22;1026;51.460;7.252;2022-09-09T04:45:16;18.10;78.70
2042;DHT22;1026;51.460;7.252;2022-09-09T04:47:42;18.10;78.60
2042;DHT22;1026;51.460;7.252;2022-09-09T04:50:08;18.10;78.60
2042;DHT22;1026;51.460;7.252;2022-09-09T04:52:35;18.10;78.70
2042;DHT22;1026;51.460;7.252;2022-09-09T04:55:01;18.10;78.70
2042;DHT22;1026;51.460;7.252;2022-09-09T04:57:27;18.00;78.70
2042;DHT22;1026;51.460;7.252;2022-09-09T04:59:54;18.00;78.60
2042;DHT22;1026;51.460;7.252;2022-09-09T05:02:19;18.00;78.70
2042;DHT22;1026;51.460;7.252;2022-09-09T05:04:45;18.00;78.70
2042;DHT22;1026;51.460;7.252;2022-09-09T05:07:10;18.00;78.70
2042;DHT22;1026;51.460;7.252;2022-09-09T05:09:36;18.00;78.70
2042;DHT22;1026;51.460;7.252;2022-09-09T05:12:02;18.00;78.70
2042;DHT22;1026;51.460;7.252;2022-09-09T05:14:28;18.00;78.70
2042;DHT22;1026;51.460;7.252;2022-09-09T05:16:55;18.00;78.80
2042;DHT22;1026;51.460;7.252;2022-09-09T05:19:21;18.00;78.80
2042;DHT22;1026;51.460;7.252;2022-09-09T05:21:47;18.00;78.80
2042;DHT22;1026;51.460;7.252;2022-09-09T05:24:13;18.00;78.80
2042;DHT22;1026;51.460;7.252;2022-09-09T05:26:39;18.00;78.70
2042;DHT22;1026;51.460;7.252;2022-09-09T05:29:04;18.00;78.80
2042;DHT22;1026;51.460;7.252;2022-09-09T05:31:31;18.00;78.80
2042;DHT22;1026;51.460;7.252;2022-09-09T05:33:58;17.80;78.70
2042;DHT22;1026;51.460;7.252;2022-09-09T05:36:24;17.90;78.80
2042;DHT22;1026;51.460;7.252;2022-09-09T05:38:50;17.90;78.80
2042;DHT22;1026;51.460;7.252;2022-09-09T05:41:16;17.90;78.80
2042;DHT22;1026;51.460;7.252;2022-09-09T05:43:43;17.90;78.80
2042;DHT22;1026;51.460;7.252;2022-09-09T05:46:13;17.80;78.70
2042;DHT22;1026;51.460;7.252;2022-09-09T05:48:42;17.90;78.80
2042;DHT22;1026;51.460;7.252;2022-09-09T05:51:10;17.90;78.90
2042;DHT22;1026;51.460;7.252;2022-09-09T05:53:38;17.90;78.80
2042;DHT22;1026;51.460;7.252;2022-09-09T05:56:07;17.90;78.90
2042;DHT22;1026;51.460;7.252;2022-09-09T05:58:36;17.90;78.90
2042;DHT22;1026;51.460;7.252;2022-09-09T06:01:05;17.90;78.90
2042;DHT22;1026;51.460;7.252;2022-09-09T06:03:36;17.90;78.90
2042;DHT22;1026;51.460;7.252;2022-09-09T06:06:04;17.90;78.90
2042;DHT22;1026;51.460;7.252;2022-09-09T06:08:31;17.90;79.10
2042;DHT22;1026;51.460;7.252;2022-09-09T06:11:06;17.80;78.80
2042;DHT22;1026;51.460;7.252;2022-09-09T06:13:32;17.90;79.00
2042;DHT22;1026;51.460;7.252;2022-09-09T06:15:58;17.90;79.00
2042;DHT22;1026;51.460;7.252;2022-09-09T06:18:25;17.90;79.70
2042;DHT22;1026;51.460;7.252;2022-09-09T06:20:56;17.90;79.00
2042;DHT22;1026;51.460;7.252;2022-09-09T06:23:22;17.90;79.00
2042;DHT22;1026;51.460;7.252;2022-09-09T06:25:48;17.90;79.00
2042;DHT22;1026;51.460;7.252;2022-09-09T06:28:14;17.90;79.10
2042;DHT22;1026;51.460;7.252;2022-09-09T06:30:41;17.90;79.10
2042;DHT22;1026;51.460;7.252;2022-09-09T06:33:06;17.90;79.10
2042;DHT22;1026;51.460;7.252;2022-09-09T06:35:32;17.90;79.10
2042;DHT22;1026;51.460;7.252;2022-09-09T06:37:57;17.90;79.00
2042;DHT22;1026;51.460;7.252;2022-09-09T06:40:24;17.90;79.00
2042;DHT22;1026;51.460;7.252;2022-09-09T06:42:50;17.90;79.00
2042;DHT22;1026;51.460;7.252;2022-09-09T06:45:16;17.90;79.00
2042;DHT22;1026;51.460;7.252;2022-09-09T06:47:42;17.90;79.00
2042;DHT22;1026;51.460;7.252;2022-09-09T06:50:08;17.90;79.00
2042;DHT22;1026;51.460;7.252;2022-09-09T06:52:34;17.90;79.10
2042;DHT22;1026;51.460;7.252;2022-09-09T06:54:59;17.90;79.10
2042;DHT22;1026;51.460;7.252;2022-09-09T06:57:25;17.90;79.00
2042;DHT22;1026;51.460;7.252;2022-09-09T06:59:50;17.90;79.00
2042;DHT22;1026;51.460;7.252;2022-09-09T07:02:16;17.90;79.00
2042;DHT22;1026;51.460;7.252;2022-09-09T07:04:42;17.90;79.00
2042;DHT22;1026;51.460;7.252;2022-09-09T07:07:08;17.90;79.10
2042;DHT22;1026;51.460;7.252;2022-09-09T07:09:35;17.90;79.10
2042;DHT22;1026;51.460;7.252;2022-09-09T07:12:00;17.90;79.10
2042;DHT22;1026;51.460;7.252;2022-09-09T07:14:26;17.80;78.90
2042;DHT22;1026;51.460;7.252;2022-09-09T07:16:52;17.90;79.20
2042;DHT22;1026;51.460;7.252;2022-09-09T07:19:18;17.90;79.10
2042;DHT22;1026;51.460;7.252;2022-09-09T07:21:44;17.90;79.10
2042;DHT22;1026;51.460;7.252;2022-09-09T07:24:10;17.90;79.10
2042;DHT22;1026;51.460;7.252;2022-09-09T07:26:37;17.90;79.10
2042;DHT22;1026;51.460;7.252;2022-09-09T07:29:04;17.90;79.20
2042;DHT22;1026;51.460;7.252;2022-09-09T07:31:33;17.90;79.10
2042;DHT22;1026;51.460;7.252;2022-09-09T07:33:59;17.90;79.20
2042;DHT22;1026;51.460;7.252;2022-09-09T07:36:28;17.90;79.20
2042;DHT22;1026;51.460;7.252;2022-09-09T07:38:58;17.90;79.20
2042;DHT22;1026;51.460;7.252;2022-09-09T07:41:28;17.90;79.20
2042;DHT22;1026;51.460;7.252;2022-09-09T07:43:54;17.90;79.20
2042;DHT22;1026;51.460;7.252;2022-09-09T07:46:22;17.90;79.10
2042;DHT22;1026;51.460;7.252;2022-09-09T07:48:50;17.90;79.20
2042;DHT22;1026;51.460;7.252;2022-09-09T07:51:20;17.90;79.10
2042;DHT22;1026;51.460;7.252;2022-09-09T07:53:48;17.90;79.10
2042;DHT22;1026;51.460;7.252;2022-09-09T07:56:16;17.90;79.10
2042;DHT22;1026;51.460;7.252;2022-09-09T07:58:44;17.90;79.10
2042;DHT22;1026;51.460;7.252;2022-09-09T08:01:12;17.90;79.00
2042;DHT22;1026;51.460;7.252;2022-09-09T08:03:39;17.90;79.10
2042;DHT22;1026;51.460;7.252;2022-09-09T08:06:07;17.90;79.10
2042;DHT22;1026;51.460;7.252;2022-09-09T08:08:35;17.90;79.10
2042;DHT22;1026;51.460;7.252;2022-09-09T08:11:05;17.90;79.10
2042;DHT22;1026;51.460;7.252;2022-09-09T08:13:33;17.90;79.00
2042;DHT22;1026;51.460;7.252;2022-09-09T08:16:09;17.90;79.20
2042;DHT22;1026;51.460;7.252;2022-09-09T08:18:35;17.90;79.10
2042;DHT22;1026;51.460;7.252;2022-09-09T08:21:12;17.90;79.00
2042;DHT22;1026;51.460;7.252;2022-09-09T08:23:40;17.90;79.20
2042;DHT22;1026;51.460;7.252;2022-09-09T08:26:12;17.90;79.10
2042;DHT22;1026;51.460;7.252;2022-09-09T08:28:39;17.90;79.10
2042;DHT22;1026;51.460;7.252;2022-09-09T08:31:07;17.90;79.00
2042;DHT22;1026;51.460;7.252;2022-09-09T08:33:32;17.90;79.50
2042;DHT22;1026;51.460;7.252;2022-09-09T08:35:59;17.90;79.10
2042;DHT22;1026;51.460;7.252;2022-09-09T08:38:24;17.80;79.00
2042;DHT22;1026;51.460;7.252;2022-09-09T08:40:53;17.80;79.00
2042;DHT22;1026;51.460;7.252;2022-09-09T08:43:24;17.90;79.00
2042;DHT22;1026;51.460;7.252;2022-09-09T08:48:48;18.00;79.10
2042;DHT22;1026;51.460;7.252;2022-09-09T08:51:18;17.90;79.00
2042;DHT22;1026;51.460;7.252;2022-09-09T08:53:48;18.00;79.20
2042;DHT22;1026;51.460;7.252;2022-09-09T08:56:18;18.00;79.20
2042;DHT22;1026;51.460;7.252;2022-09-09T08:58:47;18.00;79.20
2042;DHT22;1026;51.460;7.252;2022-09-09T09:01:35;17.80;79.00
2042;DHT22;1026;51.460;7.252;2022-09-09T09:07:10;18.00;79.20
2042;DHT22;1026;51.460;7.252;2022-09-09T09:12:18;18.00;79.20
2042;DHT22;1026;51.460;7.252;2022-09-09T09:14:46;18.00;79.20
2042;DHT22;1026;51.460;7.252;2022-09-09T09:19:41;18.00;79.00
2042;DHT22;1026;51.460;7.252;2022-09-09T09:25:16;18.00;79.00
2042;DHT22;1026;51.460;7.252;2022-09-09T09:27:52;18.00;79.10
2042;DHT22;1026;51.460;7.252;2022-09-09T09:30:25;18.00;79.00
2042;DHT22;1026;51.460;7.252;2022-09-09T09:33:11;18.10;79.10
2042;DHT22;1026;51.460;7.252;2022-09-09T09:35:39;18.00;78.90
2042;DHT22;1026;51.460;7.252;2022-09-09T09:38:17;18.10;79.00
2042;DHT22;1026;51.460;7.252;2022-09-09T09:40:58;18.10;79.00
2042;DHT22;1026;51.460;7.252;2022-09-09T09:43:28;18.00;78.90
2042;DHT22;1026;51.460;7.252;2022-09-09T09:45:54;18.10;79.00
2042;DHT22;1026;51.460;7.252;2022-09-09T09:48:21;18.10;78.90
2042;DHT22;1026;51.460;7.252;2022-09-09T09:50:52;18.10;79.10
2042;DHT22;1026;51.460;7.252;2022-09-09T09:55:59;18.10;78.80
2042;DHT22;1026;51.460;7.252;2022-09-09T09:58:27;18.10;78.80
2042;DHT22;1026;51.460;7.252;2022-09-09T10:00:54;18.10;78.80
2042;DHT22;1026;51.460;7.252;2022-09-09T10:03:28;18.10;78.70
2042;DHT22;1026;51.460;7.252;2022-09-09T10:05:54;18.10;78.70
2042;DHT22;1026;51.460;7.252;2022-09-09T10:08:22;18.20;78.70
2042;DHT22;1026;51.460;7.252;2022-09-09T10:16:22;18.20;79.30
2042;DHT22;1026;51.460;7.252;2022-09-09T10:19:09;18.20;78.50
2042;DHT22;1026;51.460;7.252;2022-09-09T10:22:05;18.20;78.50
2042;DHT22;1026;51.460;7.252;2022-09-09T10:30:20;18.20;78.50
2042;DHT22;1026;51.460;7.252;2022-09-09T10:32:53;18.10;78.40
2042;DHT22;1026;51.460;7.252;2022-09-09T10:35:45;18.20;78.40
2042;DHT22;1026;51.460;7.252;2022-09-09T10:38:18;18.30;78.50
2042;DHT22;1026;51.460;7.252;2022-09-09T10:46:46;18.30;78.10
2042;DHT22;1026;51.460;7.252;2022-09-09T10:54:56;18.30;78.00
2042;DHT22;1026;51.460;7.252;2022-09-09T10:57:27;18.30;77.90
2042;DHT22;1026;51.460;7.252;2022-09-09T10:59:58;18.40;78.00
2042;DHT22;1026;51.460;7.252;2022-09-09T11:02:31;18.40;77.90
2042;DHT22;1026;51.460;7.252;2022-09-09T11:05:05;18.40;77.80
2042;DHT22;1026;51.460;7.252;2022-09-09T11:07:37;18.40;77.80
2042;DHT22;1026;51.460;7.252;2022-09-09T11:10:14;18.40;77.70
2042;DHT22;1026;51.460;7.252;2022-09-09T11:12:43;18.40;77.70
2042;DHT22;1026;51.460;7.252;2022-09-09T11:15:28;18.40;77.60
2042;DHT22;1026;51.460;7.252;2022-09-09T11:17:59;18.40;77.60
2042;DHT22;1026;51.460;7.252;2022-09-09T11:20:26;18.50;77.60
2042;DHT22;1026;51.460;7.252;2022-09-09T11:25:31;18.50;77.50
2042;DHT22;1026;51.460;7.252;2022-09-09T11:28:20;18.50;77.50
2042;DHT22;1026;51.460;7.252;2022-09-09T11:30:56;18.50;77.50
2042;DHT22;1026;51.460;7.252;2022-09-09T11:36:53;18.50;77.50
2042;DHT22;1026;51.460;7.252;2022-09-09T11:39:38;18.50;77.40
2042;DHT22;1026;51.460;7.252;2022-09-09T11:44:38;18.60;77.40
2042;DHT22;1026;51.460;7.252;2022-09-09T11:47:33;18.60;77.80
2042;DHT22;1026;51.460;7.252;2022-09-09T11:52:45;18.60;77.40
2042;DHT22;1026;51.460;7.252;2022-09-09T11:55:28;18.60;77.30
2042;DHT22;1026;51.460;7.252;2022-09-09T11:58:00;18.70;77.30
2042;DHT22;1026;51.460;7.252;2022-09-09T12:00:42;18.70;77.30
2042;DHT22;1026;51.460;7.252;2022-09-09T12:06:30;18.70;77.10
2042;DHT22;1026;51.460;7.252;2022-09-09T12:09:18;18.70;77.10
2042;DHT22;1026;51.460;7.252;2022-09-09T12:11:45;18.70;77.10
2042;DHT22;1026;51.460;7.252;2022-09-09T12:17:22;18.80;77.10
2042;DHT22;1026;51.460;7.252;2022-09-09T12:20:02;18.80;77.10
2042;DHT22;1026;51.460;7.252;2022-09-09T12:25:44;18.80;77.40
2042;DHT22;1026;51.460;7.252;2022-09-09T12:28:18;18.80;77.30
2042;DHT22;1026;51.460;7.252;2022-09-09T12:30:59;18.70;77.10
2042;DHT22;1026;51.460;7.252;2022-09-09T12:33:35;18.80;77.20
2042;DHT22;1026;51.460;7.252;2022-09-09T12:36:03;18.80;77.90
2042;DHT22;1026;51.460;7.252;2022-09-09T12:38:35;18.90;77.80
2042;DHT22;1026;51.460;7.252;2022-09-09T12:41:01;18.80;77.70
2042;DHT22;1026;51.460;7.252;2022-09-09T12:43:28;18.90;78.00
2042;DHT22;1026;51.460;7.252;2022-09-09T12:45:58;18.90;77.80
2042;DHT22;1026;51.460;7.252;2022-09-09T12:48:34;18.90;77.60
2042;DHT22;1026;51.460;7.252;2022-09-09T12:51:02;18.90;77.50
2042;DHT22;1026;51.460;7.252;2022-09-09T12:53:33;18.90;77.40
2042;DHT22;1026;51.460;7.252;2022-09-09T12:56:03;18.90;77.40
2042;DHT22;1026;51.460;7.252;2022-09-09T12:58:31;18.90;77.20
2042;DHT22;1026;51.460;7.252;2022-09-09T13:00:59;18.80;77.30
2042;DHT22;1026;51.460;7.252;2022-09-09T13:03:26;18.90;77.10
2042;DHT22;1026;51.460;7.252;2022-09-09T13:05:53;18.90;77.30
2042;DHT22;1026;51.460;7.252;2022-09-09T13:08:24;19.00;77.70
2042;DHT22;1026;51.460;7.252;2022-09-09T13:10:54;19.00;77.50
2042;DHT22;1026;51.460;7.252;2022-09-09T13:13:27;19.00;79.60
2042;DHT22;1026;51.460;7.252;2022-09-09T13:15:58;19.00;77.70
2042;DHT22;1026;51.460;7.252;2022-09-09T13:18:28;19.00;77.80
2042;DHT22;1026;51.460;7.252;2022-09-09T13:20:55;19.00;77.80
2042;DHT22;1026;51.460;7.252;2022-09-09T13:23:28;19.00;77.70
2042;DHT22;1026;51.460;7.252;2022-09-09T13:25:56;19.00;77.70
2042;DHT22;1026;51.460;7.252;2022-09-09T13:28:25;19.00;77.40
2042;DHT22;1026;51.460;7.252;2022-09-09T13:31:19;19.00;77.50
2042;DHT22;1026;51.460;7.252;2022-09-09T13:33:45;19.00;77.80
2042;DHT22;1026;51.460;7.252;2022-09-09T13:36:12;19.00;78.00
2042;DHT22;1026;51.460;7.252;2022-09-09T13:38:54;19.00;77.70
2042;DHT22;1026;51.460;7.252;2022-09-09T13:41:24;19.10;77.60
2042;DHT22;1026;51.460;7.252;2022-09-09T13:43:51;19.10;77.80
2042;DHT22;1026;51.460;7.252;2022-09-09T13:51:39;19.10;77.40
2042;DHT22;1026;51.460;7.252;2022-09-09T13:54:08;19.00;77.40
2042;DHT22;1026;51.460;7.252;2022-09-09T13:56:35;19.10;78.00
2042;DHT22;1026;51.460;7.252;2022-09-09T13:59:03;19.10;77.50
2042;DHT22;1026;51.460;7.252;2022-09-09T14:01:29;19.10;77.30
2042;DHT22;1026;51.460;7.252;2022-09-09T14:03:55;19.10;77.30
2042;DHT22;1026;51.460;7.252;2022-09-09T14:06:22;19.10;77.30
2042;DHT22;1026;51.460;7.252;2022-09-09T14:08:49;19.10;77.50
2042;DHT22;1026;51.460;7.252;2022-09-09T14:11:16;19.10;77.30
2042;DHT22;1026;51.460;7.252;2022-09-09T14:13:42;19.10;77.50
2042;DHT22;1026;51.460;7.252;2022-09-09T14:16:08;19.10;77.20
2042;DHT22;1026;51.460;7.252;2022-09-09T14:18:33;19.20;77.40
2042;DHT22;1026;51.460;7.252;2022-09-09T14:20:59;19.20;77.60
2042;DHT22;1026;51.460;7.252;2022-09-09T14:23:25;19.20;77.60
2042;DHT22;1026;51.460;7.252;2022-09-09T14:25:51;19.20;77.60
2042;DHT22;1026;51.460;7.252;2022-09-09T14:28:17;19.20;77.60
2042;DHT22;1026;51.460;7.252;2022-09-09T14:30:43;19.20;77.40
2042;DHT22;1026;51.460;7.252;2022-09-09T14:33:13;19.20;77.60
2042;DHT22;1026;51.460;7.252;2022-09-09T14:35:39;19.20;77.50
2042;DHT22;1026;51.460;7.252;2022-09-09T14:38:06;19.20;78.00
2042;DHT22;1026;51.460;7.252;2022-09-09T14:40:34;19.20;78.00
2042;DHT22;1026;51.460;7.252;2022-09-09T14:43:00;19.20;77.90
2042;DHT22;1026;51.460;7.252;2022-09-09T14:45:25;19.20;77.40
2042;DHT22;1026;51.460;7.252;2022-09-09T14:47:51;19.20;77.10
2042;DHT22;1026;51.460;7.252;2022-09-09T14:50:18;19.20;78.00
2042;DHT22;1026;51.460;7.252;2022-09-09T14:52:44;19.20;77.30
2042;DHT22;1026;51.460;7.252;2022-09-09T14:55:10;19.20;77.40
2042;DHT22;1026;51.460;7.252;2022-09-09T14:57:36;19.30;77.50
2042;DHT22;1026;51.460;7.252;2022-09-09T15:00:03;19.30;77.30
2042;DHT22;1026;51.460;7.252;2022-09-09T15:02:30;19.30;78.00
2042;DHT22;1026;51.460;7.252;2022-09-09T15:04:56;19.30;77.50
2042;DHT22;1026;51.460;7.252;2022-09-09T15:07:24;19.30;77.60
2042;DHT22;1026;51.460;7.252;2022-09-09T15:09:50;19.30;78.00
2042;DHT22;1026;51.460;7.252;2022-09-09T15:12:16;19.30;77.60
2042;DHT22;1026;51.460;7.252;2022-09-09T15:14:44;19.30;77.70
2042;DHT22;1026;51.460;7.252;2022-09-09T15:17:10;19.30;77.50
2042;DHT22;1026;51.460;7.252;2022-09-09T15:19:36;19.30;77.50
2042;DHT22;1026;51.460;7.252;2022-09-09T15:22:03;19.30;77.40
2042;DHT22;1026;51.460;7.252;2022-09-09T15:24:31;19.30;77.50
2042;DHT22;1026;51.460;7.252;2022-09-09T15:26:56;19.30;77.80
2042;DHT22;1026;51.460;7.252;2022-09-09T15:29:23;19.30;77.70
2042;DHT22;1026;51.460;7.252;2022-09-09T15:31:48;19.30;78.00
2042;DHT22;1026;51.460;7.252;2022-09-09T15:34:14;19.30;77.70
2042;DHT22;1026;51.460;7.252;2022-09-09T15:36:42;19.30;77.60
2042;DHT22;1026;51.460;7.252;2022-09-09T15:39:10;19.20;77.60
2042;DHT22;1026;51.460;7.252;2022-09-09T15:41:38;19.30;77.60
2042;DHT22;1026;51.460;7.252;2022-09-09T15:44:05;19.30;77.70
2042;DHT22;1026;51.460;7.252;2022-09-09T15:46:32;19.30;77.70
2042;DHT22;1026;51.460;7.252;2022-09-09T15:49:05;19.30;77.80
2042;DHT22;1026;51.460;7.252;2022-09-09T15:51:31;19.30;77.70
2042;DHT22;1026;51.460;7.252;2022-09-09T15:53:58;19.30;77.70
2042;DHT22;1026;51.460;7.252;2022-09-09T15:56:25;19.30;77.70
2042;DHT22;1026;51.460;7.252;2022-09-09T15:58:51;19.30;77.80
2042;DHT22;1026;51.460;7.252;2022-09-09T16:01:17;19.30;77.70
2042;DHT22;1026;51.460;7.252;2022-09-09T16:03:44;19.30;77.80
2042;DHT22;1026;51.460;7.252;2022-09-09T16:06:13;19.30;77.80
2042;DHT22;1026;51.460;7.252;2022-09-09T16:08:41;19.30;77.80
2042;DHT22;1026;51.460;7.252;2022-09-09T16:11:13;19.30;77.80
2042;DHT22;1026;51.460;7.252;2022-09-09T16:13:41;19.30;77.90
2042;DHT22;1026;51.460;7.252;2022-09-09T16:16:09;19.20;77.80
2042;DHT22;1026;51.460;7.252;2022-09-09T16:18:36;19.30;78.00
2042;DHT22;1026;51.460;7.252;2022-09-09T16:21:03;19.10;77.80
2042;DHT22;1026;51.460;7.252;2022-09-09T16:23:31;19.20;78.00
2042;DHT22;1026;51.460;7.252;2022-09-09T16:25:57;19.20;78.00
2042;DHT22;1026;51.460;7.252;2022-09-09T16:28:23;19.20;78.00
2042;DHT22;1026;51.460;7.252;2022-09-09T16:30:49;19.20;78.00
2042;DHT22;1026;51.460;7.252;2022-09-09T16:33:15;19.20;78.00
2042;DHT22;1026;51.460;7.252;2022-09-09T16:35:41;19.20;78.00
2042;DHT22;1026;51.460;7.252;2022-09-09T16:38:07;19.20;78.00
2042;DHT22;1026;51.460;7.252;2022-09-09T16:40:34;19.20;78.10
2042;DHT22;1026;51.460;7.252;2022-09-09T16:43:01;19.20;78.10
2042;DHT22;1026;51.460;7.252;2022-09-09T16:45:27;19.20;78.10
2042;DHT22;1026;51.460;7.252;2022-09-09T16:47:53;19.20;78.10
2042;DHT22;1026;51.460;7.252;2022-09-09T16:50:19;19.20;78.10
2042;DHT22;1026;51.460;7.252;2022-09-09T16:52:45;19.20;78.10
2042;DHT22;1026;51.460;7.252;2022-09-09T16:55:10;19.20;78.20
2042;DHT22;1026;51.460;7.252;2022-09-09T16:57:36;19.20;78.30
2042;DHT22;1026;51.460;7.252;2022-09-09T17:00:03;19.20;78.20
2042;DHT22;1026;51.460;7.252;2022-09-09T17:02:31;19.20;78.40
2042;DHT22;1026;51.460;7.252;2022-09-09T17:04:57;19.20;78.30
2042;DHT22;1026;51.460;7.252;2022-09-09T17:07:22;19.10;78.20
2042;DHT22;1026;51.460;7.252;2022-09-09T17:09:48;19.10;78.20
2042;DHT22;1026;51.460;7.252;2022-09-09T17:12:14;19.10;78.20
2042;DHT22;1026;51.460;7.252;2022-09-09T17:14:41;19.10;78.20
2042;DHT22;1026;51.460;7.252;2022-09-09T17:17:07;19.20;78.40
2042;DHT22;1026;51.460;7.252;2022-09-09T17:19:33;19.10;78.70
2042;DHT22;1026;51.460;7.252;2022-09-09T17:21:59;19.10;78.40
2042;DHT22;1026;51.460;7.252;2022-09-09T17:24:26;19.10;78.30
2042;DHT22;1026;51.460;7.252;2022-09-09T17:26:52;19.10;78.50
2042;DHT22;1026;51.460;7.252;2022-09-09T17:29:19;19.10;78.50
2042;DHT22;1026;51.460;7.252;2022-09-09T17:31:45;19.00;78.30
2042;DHT22;1026;51.460;7.252;2022-09-09T17:34:10;19.10;78.40
2042;DHT22;1026;51.460;7.252;2022-09-09T17:36:37;19.10;78.40
2042;DHT22;1026;51.460;7.252;2022-09-09T17:39:04;19.10;78.40
2042;DHT22;1026;51.460;7.252;2022-09-09T17:41:33;19.10;78.40
2042;DHT22;1026;51.460;7.252;2022-09-09T17:43:59;19.10;78.50
2042;DHT22;1026;51.460;7.252;2022-09-09T17:46:28;19.00;78.40
2042;DHT22;1026;51.460;7.252;2022-09-09T17:48:57;19.10;78.50
2042;DHT22;1026;51.460;7.252;2022-09-09T17:51:25;19.10;78.50
2042;DHT22;1026;51.460;7.252;2022-09-09T17:53:54;19.10;78.50
2042;DHT22;1026;51.460;7.252;2022-09-09T17:56:21;19.10;78.50
2042;DHT22;1026;51.460;7.252;2022-09-09T17:58:48;19.10;78.60
2042;DHT22;1026;51.460;7.252;2022-09-09T18:01:18;19.10;78.60